createdAt,value
2017-04-06T00:00:25.680Z,0
2017-04-06T00:01:25.665Z,0
2017-04-06T00:02:25.655Z,0
2017-04-06T00:03:25.952Z,0
2017-04-06T00:04:25.635Z,0
2017-04-06T00:05:25.629Z,0
2017-04-06T00:06:25.619Z,0
2017-04-06T00:07:25.610Z,0
2017-04-06T00:08:25.848Z,0
2017-04-06T00:09:25.286Z,0
2017-04-06T00:10:25.926Z,0
2017-04-06T00:11:25.271Z,0
2017-04-06T00:12:25.561Z,0
2017-04-06T00:13:25.801Z,0
2017-04-06T00:14:25.543Z,0
2017-04-06T00:15:25.532Z,0
2017-04-06T00:16:25.530Z,0
2017-04-06T00:17:25.517Z,0
2017-04-06T00:18:25.753Z,0
2017-04-06T00:19:25.493Z,0
2017-04-06T00:20:25.484Z,0
2017-04-06T00:21:25.477Z,0
2017-04-06T00:22:25.465Z,0
2017-04-06T00:23:25.755Z,0
2017-04-06T00:24:25.446Z,0
2017-04-06T00:25:25.434Z,0
2017-04-06T00:26:25.429Z,0
2017-04-06T00:27:25.417Z,0
2017-04-06T00:28:25.760Z,0
2017-04-06T00:29:25.398Z,0
2017-04-06T00:30:25.391Z,0
2017-04-06T00:31:25.382Z,0
2017-04-06T00:32:25.373Z,0
2017-04-06T00:33:25.618Z,0
2017-04-06T00:34:25.354Z,0
2017-04-06T00:35:25.341Z,0
2017-04-06T00:36:25.336Z,0
2017-04-06T00:37:25.323Z,0
2017-04-06T00:38:25.610Z,0
2017-04-06T00:39:25.305Z,0
2017-04-06T00:40:25.297Z,0
2017-04-06T00:41:25.288Z,0
2017-04-06T00:42:25.275Z,0
2017-04-06T00:43:25.512Z,0
2017-04-06T00:44:24.959Z,0
2017-04-06T00:45:24.941Z,0
2017-04-06T00:46:25.238Z,0
2017-04-06T00:47:25.222Z,0
2017-04-06T00:48:25.475Z,0
2017-04-06T00:49:25.205Z,0
2017-04-06T00:50:24.593Z,0
2017-04-06T00:51:25.195Z,0
2017-04-06T00:52:25.174Z,0
2017-04-06T00:53:25.465Z,0
2017-04-06T00:54:25.158Z,0
2017-04-06T00:55:25.156Z,0
2017-04-06T00:56:25.140Z,0
2017-04-06T00:57:25.125Z,0
2017-04-06T00:58:25.116Z,0
2017-04-06T00:59:25.107Z,0
2017-04-06T01:00:25.100Z,0
2017-04-06T01:01:25.089Z,0
2017-04-06T01:02:24.777Z,0
2017-04-06T01:03:25.067Z,0
2017-04-06T01:04:25.057Z,0
2017-04-06T01:05:25.047Z,0
2017-04-06T01:06:25.042Z,0
2017-04-06T01:07:25.028Z,0
2017-04-06T01:08:25.018Z,0
2017-04-06T01:09:25.008Z,0
2017-04-06T01:10:25.001Z,0
2017-04-06T01:11:24.989Z,0
2017-04-06T01:12:24.980Z,0
2017-04-06T01:13:24.665Z,0
2017-04-06T01:14:25.213Z,0
2017-04-06T01:15:24.645Z,0
2017-04-06T01:16:24.942Z,0
2017-04-06T01:17:24.932Z,0
2017-04-06T01:18:24.918Z,0
2017-04-06T01:19:25.159Z,0
2017-04-06T01:20:24.902Z,0
2017-04-06T01:21:24.890Z,0
2017-04-06T01:22:24.882Z,0
2017-04-06T01:23:24.869Z,0
2017-04-06T01:24:24.814Z,0
2017-04-06T01:25:24.850Z,0
2017-04-06T01:26:24.842Z,0
2017-04-06T01:27:24.830Z,0
2017-04-06T01:28:24.822Z,0
2017-04-06T01:29:25.115Z,0
2017-04-06T01:30:24.498Z,0
2017-04-06T01:31:24.791Z,0
2017-04-06T01:32:24.781Z,0
2017-04-06T01:33:24.770Z,0
2017-04-06T01:34:25.011Z,0
2017-04-06T01:35:24.761Z,0
2017-04-06T01:36:24.743Z,0
2017-04-06T01:37:24.730Z,0
2017-04-06T01:38:24.724Z,0
2017-04-06T01:39:25.059Z,0
2017-04-06T01:40:24.703Z,0
2017-04-06T01:41:24.692Z,0
2017-04-06T01:42:24.684Z,0
2017-04-06T01:43:24.675Z,0
2017-04-06T01:44:24.960Z,0
2017-04-06T01:45:24.651Z,0
2017-04-06T01:46:24.642Z,0
2017-04-06T01:47:24.634Z,0
2017-04-06T01:48:24.621Z,0
2017-04-06T01:49:24.860Z,0
2017-04-06T01:50:24.604Z,0
2017-04-06T01:51:24.592Z,0
2017-04-06T01:52:24.580Z,0
2017-04-06T01:53:24.575Z,0
2017-04-06T01:54:24.866Z,0
2017-04-06T01:55:24.549Z,0
2017-04-06T01:56:24.544Z,0
2017-04-06T01:57:24.537Z,0
2017-04-06T01:58:24.520Z,0
2017-04-06T01:59:24.457Z,0
2017-04-06T02:00:24.503Z,0
2017-04-06T02:01:24.494Z,0
2017-04-06T02:02:24.482Z,0
2017-04-06T02:03:24.168Z,0
2017-04-06T02:04:24.712Z,0
2017-04-06T02:05:24.452Z,0
2017-04-06T02:06:24.441Z,0
2017-04-06T02:07:24.434Z,0
2017-04-06T02:08:24.428Z,0
2017-04-06T02:09:24.663Z,0
2017-04-06T02:10:24.403Z,0
2017-04-06T02:11:24.394Z,0
2017-04-06T02:12:24.385Z,0
2017-04-06T02:13:24.373Z,0
2017-04-06T02:14:24.714Z,0
2017-04-06T02:15:24.052Z,0
2017-04-06T02:16:24.347Z,0
2017-04-06T02:17:24.333Z,0
2017-04-06T02:18:24.324Z,0
2017-04-06T02:19:24.563Z,0
2017-04-06T02:20:24.310Z,0
2017-04-06T02:21:24.293Z,0
2017-04-06T02:22:24.289Z,0
2017-04-06T02:23:24.273Z,0
2017-04-06T02:24:24.516Z,0
2017-04-06T02:25:24.253Z,0
2017-04-06T02:26:24.248Z,0
2017-04-06T02:27:24.234Z,0
2017-04-06T02:28:24.226Z,0
2017-04-06T02:29:24.515Z,0
2017-04-06T02:30:24.213Z,0
2017-04-06T02:31:24.195Z,0
2017-04-06T02:32:23.884Z,0
2017-04-06T02:33:24.176Z,0
2017-04-06T02:34:24.422Z,0
2017-04-06T02:35:24.157Z,0
2017-04-06T02:36:23.843Z,0
2017-04-06T02:37:24.136Z,0
2017-04-06T02:38:24.123Z,0
2017-04-06T02:39:24.367Z,0
2017-04-06T02:40:24.104Z,0
2017-04-06T02:41:24.095Z,0
2017-04-06T02:42:24.086Z,0
2017-04-06T02:43:23.771Z,0
2017-04-06T02:44:24.314Z,0
2017-04-06T02:45:24.055Z,0
2017-04-06T02:46:24.042Z,0
2017-04-06T02:47:24.035Z,0
2017-04-06T02:48:24.032Z,0
2017-04-06T02:49:24.262Z,0
2017-04-06T02:50:23.699Z,0
2017-04-06T02:51:23.993Z,0
2017-04-06T02:52:23.986Z,0
2017-04-06T02:53:23.668Z,0
2017-04-06T02:54:23.959Z,0
2017-04-06T02:55:23.648Z,0
2017-04-06T02:56:23.637Z,0
2017-04-06T02:57:23.932Z,0
2017-04-06T02:58:23.920Z,0
2017-04-06T02:59:24.259Z,0
2017-04-06T03:00:23.903Z,0
2017-04-06T03:01:23.892Z,0
2017-04-06T03:02:23.573Z,0
2017-04-06T03:03:23.865Z,0
2017-04-06T03:04:24.105Z,0
2017-04-06T03:05:23.542Z,0
2017-04-06T03:06:23.835Z,0
2017-04-06T03:07:23.830Z,0
2017-04-06T03:08:23.810Z,0
2017-04-06T03:09:24.077Z,0
2017-04-06T03:10:23.792Z,0
2017-04-06T03:11:23.478Z,0
2017-04-06T03:12:23.769Z,0
2017-04-06T03:13:23.756Z,0
2017-04-06T03:14:23.998Z,0
2017-04-06T03:15:23.433Z,0
2017-04-06T03:16:23.726Z,0
2017-04-06T03:17:23.715Z,0
2017-04-06T03:18:23.704Z,0
2017-04-06T03:19:23.989Z,0
2017-04-06T03:20:23.679Z,0
2017-04-06T03:21:23.673Z,0
2017-04-06T03:22:23.661Z,0
2017-04-06T03:23:23.646Z,0
2017-04-06T03:24:23.884Z,0
2017-04-06T03:25:23.322Z,0
2017-04-06T03:26:23.615Z,0
2017-04-06T03:27:23.601Z,0
2017-04-06T03:28:23.588Z,0
2017-04-06T03:29:23.880Z,0
2017-04-06T03:30:23.565Z,0
2017-04-06T03:31:23.553Z,0
2017-04-06T03:32:23.544Z,0
2017-04-06T03:33:23.534Z,0
2017-04-06T03:34:23.869Z,0
2017-04-06T03:35:23.510Z,0
2017-04-06T03:36:23.496Z,0
2017-04-06T03:37:23.487Z,0
2017-04-06T03:38:23.475Z,0
2017-04-06T03:39:23.713Z,0
2017-04-06T03:40:23.458Z,0
2017-04-06T03:41:23.469Z,0
2017-04-06T03:42:23.430Z,0
2017-04-06T03:43:23.417Z,0
2017-04-06T03:44:23.704Z,0
2017-04-06T03:45:23.394Z,0
2017-04-06T03:46:23.382Z,0
2017-04-06T03:47:23.375Z,0
2017-04-06T03:48:23.359Z,0
2017-04-06T03:49:23.647Z,0
2017-04-06T03:50:23.334Z,0
2017-04-06T03:51:23.025Z,4
2017-04-06T03:52:23.315Z,4
2017-04-06T03:53:23.298Z,4
2017-04-06T03:54:23.541Z,0
2017-04-06T03:55:23.279Z,4
2017-04-06T03:56:23.263Z,4
2017-04-06T03:57:23.252Z,4
2017-04-06T03:58:23.242Z,8
2017-04-06T03:59:23.483Z,8
2017-04-06T04:00:22.917Z,8
2017-04-06T04:01:23.223Z,8
2017-04-06T04:02:23.193Z,12
2017-04-06T04:03:23.182Z,12
2017-04-06T04:04:23.520Z,12
2017-04-06T04:05:23.157Z,16
2017-04-06T04:06:23.150Z,20
2017-04-06T04:07:23.143Z,24
2017-04-06T04:08:23.126Z,24
2017-04-06T04:09:23.112Z,28
2017-04-06T04:10:23.100Z,36
2017-04-06T04:11:23.089Z,36
2017-04-06T04:12:23.082Z,40
2017-04-06T04:13:23.064Z,44
2017-04-06T04:14:23.080Z,44
2017-04-06T04:15:23.038Z,52
2017-04-06T04:16:23.030Z,56
2017-04-06T04:17:23.017Z,64
2017-04-06T04:18:23.006Z,72
2017-04-06T04:19:22.690Z,88
2017-04-06T04:20:22.981Z,104
2017-04-06T04:21:22.971Z,124
2017-04-06T04:22:22.965Z,140
2017-04-06T04:23:22.948Z,148
2017-04-06T04:24:22.933Z,164
2017-04-06T04:25:22.872Z,180
2017-04-06T04:26:22.912Z,196
2017-04-06T04:27:22.898Z,220
2017-04-06T04:28:22.887Z,264
2017-04-06T04:29:22.874Z,300
2017-04-06T04:30:23.116Z,332
2017-04-06T04:31:22.858Z,364
2017-04-06T04:32:22.537Z,388
2017-04-06T04:33:22.830Z,408
2017-04-06T04:34:22.821Z,432
2017-04-06T04:35:23.059Z,476
2017-04-06T04:36:22.804Z,532
2017-04-06T04:37:22.787Z,612
2017-04-06T04:38:22.774Z,712
2017-04-06T04:39:22.764Z,780
2017-04-06T04:40:23.004Z,828
2017-04-06T04:41:22.741Z,868
2017-04-06T04:42:22.737Z,952
2017-04-06T04:43:22.717Z,1036
2017-04-06T04:44:22.705Z,1084
2017-04-06T04:45:22.996Z,1128
2017-04-06T04:46:22.381Z,1184
2017-04-06T04:47:22.674Z,1264
2017-04-06T04:48:22.665Z,1336
2017-04-06T04:49:22.651Z,1384
2017-04-06T04:50:22.587Z,1424
2017-04-06T04:51:22.635Z,1460
2017-04-06T04:52:22.623Z,1528
2017-04-06T04:53:22.608Z,1604
2017-04-06T04:54:22.596Z,1660
2017-04-06T04:55:22.534Z,1852
2017-04-06T04:56:22.572Z,1956
2017-04-06T04:57:22.562Z,1940
2017-04-06T04:58:22.555Z,2004
2017-04-06T04:59:22.539Z,2244
2017-04-06T05:00:22.789Z,2256
2017-04-06T05:01:22.537Z,1852
2017-04-06T05:02:22.513Z,1508
2017-04-06T05:03:22.502Z,1412
2017-04-06T05:04:22.488Z,1372
2017-04-06T05:05:22.726Z,1316
2017-04-06T05:06:22.466Z,1392
2017-04-06T05:07:22.459Z,1796
2017-04-06T05:08:22.443Z,1932
2017-04-06T05:09:22.433Z,1956
2017-04-06T05:10:22.724Z,2384
2017-04-06T05:11:22.455Z,2612
2017-04-06T05:12:22.105Z,2980
2017-04-06T05:13:22.085Z,3664
2017-04-06T05:14:22.101Z,4168
2017-04-06T05:15:22.721Z,3432
2017-04-06T05:16:22.073Z,3084
2017-04-06T05:17:22.353Z,3284
2017-04-06T05:18:22.340Z,3116
2017-04-06T05:19:22.328Z,2876
2017-04-06T05:20:22.668Z,3068
2017-04-06T05:21:22.311Z,2940
2017-04-06T05:22:22.300Z,2824
2017-04-06T05:23:22.285Z,2928
2017-04-06T05:24:21.972Z,2860
2017-04-06T05:25:22.517Z,2964
2017-04-06T05:26:22.260Z,3300
2017-04-06T05:27:21.942Z,2908
2017-04-06T05:28:22.246Z,2876
2017-04-06T05:29:21.928Z,2952
2017-04-06T05:30:22.467Z,2636
2017-04-06T05:31:21.910Z,2768
2017-04-06T05:32:22.196Z,2512
2017-04-06T05:33:22.185Z,2936
2017-04-06T05:34:22.181Z,4356
2017-04-06T05:35:22.415Z,3892
2017-04-06T05:36:21.550Z,4356
2017-04-06T05:37:21.842Z,5012
2017-04-06T05:38:22.134Z,5576
2017-04-06T05:39:22.126Z,4712
2017-04-06T05:40:22.365Z,5016
2017-04-06T05:41:21.804Z,4440
2017-04-06T05:42:21.793Z,4524
2017-04-06T05:43:22.112Z,6252
2017-04-06T05:44:22.077Z,5664
2017-04-06T05:45:22.063Z,4928
2017-04-06T05:46:21.756Z,6660
2017-04-06T05:47:22.053Z,7328
2017-04-06T05:48:22.068Z,8932
2017-04-06T05:49:22.029Z,13712
2017-04-06T05:50:21.994Z,13896
2017-04-06T05:51:22.012Z,17248
2017-04-06T05:52:22.004Z,16512
2017-04-06T05:53:21.994Z,8596
2017-04-06T05:54:21.985Z,7724
2017-04-06T05:55:22.228Z,7372
2017-04-06T05:56:21.985Z,9452
2017-04-06T05:57:21.964Z,11280
2017-04-06T05:58:21.653Z,10652
2017-04-06T05:59:21.942Z,13044
2017-04-06T06:00:22.287Z,20352
2017-04-06T06:01:21.931Z,14976
2017-04-06T06:02:21.923Z,20512
2017-04-06T06:03:21.912Z,14344
2017-04-06T06:04:21.904Z,19808
2017-04-06T06:05:22.210Z,21856
2017-04-06T06:06:21.891Z,7188
2017-04-06T06:07:21.892Z,5708
2017-04-06T06:08:21.880Z,5196
2017-04-06T06:09:21.567Z,6100
2017-04-06T06:10:22.115Z,7084
2017-04-06T06:11:21.869Z,10440
2017-04-06T06:12:21.849Z,10212
2017-04-06T06:13:21.549Z,14012
2017-04-06T06:14:21.837Z,8696
2017-04-06T06:15:22.082Z,11544
2017-04-06T06:16:21.526Z,15136
2017-04-06T06:17:21.514Z,10888
2017-04-06T06:18:21.812Z,19808
2017-04-06T06:19:21.810Z,23904
2017-04-06T06:20:22.050Z,23968
2017-04-06T06:21:21.794Z,21888
2017-04-06T06:22:21.486Z,6236
2017-04-06T06:23:21.782Z,6784
2017-04-06T06:24:21.775Z,8556
2017-04-06T06:25:22.024Z,18176
2017-04-06T06:26:21.764Z,11644
2017-04-06T06:27:21.761Z,24416
2017-04-06T06:28:21.752Z,28608
2017-04-06T06:29:21.749Z,25280
2017-04-06T06:30:22.042Z,24416
2017-04-06T06:31:21.740Z,24224
2017-04-06T06:32:21.431Z,14168
2017-04-06T06:33:21.728Z,27392
2017-04-06T06:34:21.724Z,12816
2017-04-06T06:35:22.029Z,13100
2017-04-06T06:36:21.719Z,28224
2017-04-06T06:37:21.738Z,20768
2017-04-06T06:38:21.710Z,14432
2017-04-06T06:39:21.403Z,37088
2017-04-06T06:40:21.949Z,31712
2017-04-06T06:41:21.697Z,18912
2017-04-06T06:42:21.698Z,18688
2017-04-06T06:43:21.686Z,20672
2017-04-06T06:44:21.684Z,19936
2017-04-06T06:45:21.978Z,19584
2017-04-06T06:46:21.378Z,22336
2017-04-06T06:47:21.674Z,17088
2017-04-06T06:48:21.678Z,11292
2017-04-06T06:49:21.672Z,9788
2017-04-06T06:50:21.922Z,19136
2017-04-06T06:51:21.668Z,31552
2017-04-06T06:52:21.666Z,30048
2017-04-06T06:53:21.661Z,28832
2017-04-06T06:54:21.662Z,27168
2017-04-06T06:55:21.913Z,25632
2017-04-06T06:56:21.659Z,25888
2017-04-06T06:57:21.656Z,26176
2017-04-06T06:58:21.655Z,27232
2017-04-06T06:59:21.654Z,27136
2017-04-06T07:00:21.651Z,19424
2017-04-06T07:01:21.658Z,20256
2017-04-06T07:02:21.651Z,22080
2017-04-06T07:03:21.657Z,26912
2017-04-06T07:04:21.652Z,29024
2017-04-06T07:05:21.954Z,29280
2017-04-06T07:06:21.658Z,24544
2017-04-06T07:07:21.659Z,24544
2017-04-06T07:08:21.656Z,29984
2017-04-06T07:09:21.656Z,33920
2017-04-06T07:10:21.649Z,17504
2017-04-06T07:11:21.654Z,26592
2017-04-06T07:12:21.654Z,16640
2017-04-06T07:13:21.654Z,10052
2017-04-06T07:14:21.654Z,39584
2017-04-06T07:15:21.906Z,41152
2017-04-06T07:16:21.664Z,44864
2017-04-06T07:17:21.655Z,45888
2017-04-06T07:18:21.658Z,11744
2017-04-06T07:19:21.354Z,10860
2017-04-06T07:20:21.958Z,44768
2017-04-06T07:21:21.657Z,30976
2017-04-06T07:22:21.661Z,47840
2017-04-06T07:23:21.690Z,46720
2017-04-06T07:24:21.663Z,42944
2017-04-06T07:25:21.915Z,44512
2017-04-06T07:26:21.667Z,41280
2017-04-06T07:27:21.666Z,43552
2017-04-06T07:28:21.666Z,22112
2017-04-06T07:29:21.667Z,23936
2017-04-06T07:30:21.923Z,42208
2017-04-06T07:31:21.671Z,22912
2017-04-06T07:32:21.671Z,42432
2017-04-06T07:33:21.674Z,22304
2017-04-06T07:34:21.676Z,42688
2017-04-06T07:35:21.930Z,33440
2017-04-06T07:36:21.678Z,39136
2017-04-06T07:37:21.685Z,43040
2017-04-06T07:38:21.680Z,44416
2017-04-06T07:39:21.687Z,42336
2017-04-06T07:40:22.035Z,42848
2017-04-06T07:41:21.688Z,48704
2017-04-06T07:42:21.690Z,48192
2017-04-06T07:43:21.694Z,11328
2017-04-06T07:44:21.694Z,12308
2017-04-06T07:45:21.998Z,16692
2017-04-06T07:46:21.696Z,34208
2017-04-06T07:47:21.699Z,49440
2017-04-06T07:48:21.701Z,52448
2017-04-06T07:49:21.705Z,41440
2017-04-06T07:50:22.055Z,49376
2017-04-06T07:51:21.705Z,48416
2017-04-06T07:52:21.709Z,15080
2017-04-06T07:53:21.406Z,53888
2017-04-06T07:54:21.712Z,52736
2017-04-06T07:55:22.013Z,50272
2017-04-06T07:56:21.712Z,47136
2017-04-06T07:57:21.412Z,41568
2017-04-06T07:58:21.715Z,45184
2017-04-06T07:59:21.714Z,50784
2017-04-06T08:00:21.974Z,52928
2017-04-06T08:01:21.718Z,35808
2017-04-06T08:02:21.116Z,21824
2017-04-06T08:03:21.724Z,56288
2017-04-06T08:04:21.730Z,44224
2017-04-06T08:05:22.027Z,53120
2017-04-06T08:06:21.741Z,56544
2017-04-06T08:07:21.739Z,54848
2017-04-06T08:08:21.435Z,45408
2017-04-06T08:09:21.432Z,42240
2017-04-06T08:10:21.686Z,53312
2017-04-06T08:11:21.742Z,50080
2017-04-06T08:12:21.743Z,48384
2017-04-06T08:13:21.744Z,48032
2017-04-06T08:14:21.447Z,48544
2017-04-06T08:15:21.701Z,46784
2017-04-06T08:16:21.447Z,48384
2017-04-06T08:17:21.756Z,50080
2017-04-06T08:18:21.757Z,50688
2017-04-06T08:19:21.757Z,47840
2017-04-06T08:20:22.063Z,47360
2017-04-06T08:21:21.768Z,36192
2017-04-06T08:22:21.772Z,12936
2017-04-06T08:23:21.765Z,6212
2017-04-06T08:24:21.770Z,5812
2017-04-06T08:25:22.021Z,5764
2017-04-06T08:26:21.769Z,5896
2017-04-06T08:27:21.771Z,5904
2017-04-06T08:28:21.800Z,6500
2017-04-06T08:29:21.769Z,6636
2017-04-06T08:30:22.024Z,5652
2017-04-06T08:31:21.773Z,5652
2017-04-06T08:32:21.465Z,5396
2017-04-06T08:33:21.771Z,5400
2017-04-06T08:34:21.764Z,5412
2017-04-06T08:35:22.066Z,5284
2017-04-06T08:36:21.762Z,5540
2017-04-06T08:37:21.765Z,5616
2017-04-06T08:38:21.755Z,5268
2017-04-06T08:39:21.753Z,5428
2017-04-06T08:40:22.004Z,6048
2017-04-06T08:41:21.751Z,6612
2017-04-06T08:42:21.744Z,6068
2017-04-06T08:43:21.740Z,5548
2017-04-06T08:44:21.738Z,5084
2017-04-06T08:45:22.084Z,4980
2017-04-06T08:46:21.729Z,4984
2017-04-06T08:47:21.427Z,4992
2017-04-06T08:48:21.718Z,5064
2017-04-06T08:49:21.719Z,5000
2017-04-06T08:50:24.260Z,4988
2017-04-06T08:51:21.713Z,4988
2017-04-06T08:52:21.703Z,5252
2017-04-06T08:53:21.700Z,6512
2017-04-06T08:54:21.694Z,7624
2017-04-06T08:55:21.690Z,5720
2017-04-06T08:56:21.934Z,4724
2017-04-06T08:57:21.376Z,5104
2017-04-06T08:58:21.679Z,5364
2017-04-06T08:59:21.671Z,5864
2017-04-06T09:00:21.667Z,6076
2017-04-06T09:01:21.962Z,5560
2017-04-06T09:02:21.651Z,5544
2017-04-06T09:03:21.649Z,5696
2017-04-06T09:04:21.642Z,6440
2017-04-06T09:05:21.638Z,6312
2017-04-06T09:06:21.579Z,6272
2017-04-06T09:07:21.630Z,6208
2017-04-06T09:08:21.017Z,6188
2017-04-06T09:09:21.312Z,6216
2017-04-06T09:10:21.612Z,6228
2017-04-06T09:11:21.853Z,6364
2017-04-06T09:12:21.603Z,6380
2017-04-06T09:13:21.593Z,6776
2017-04-06T09:14:21.584Z,7088
2017-04-06T09:15:21.583Z,7204
2017-04-06T09:16:21.887Z,7452
2017-04-06T09:17:21.570Z,7752
2017-04-06T09:18:21.564Z,9048
2017-04-06T09:19:21.558Z,10824
2017-04-06T09:20:21.559Z,12100
2017-04-06T09:21:21.798Z,10484
2017-04-06T09:22:21.552Z,8616
2017-04-06T09:23:21.231Z,7024
2017-04-06T09:24:21.529Z,6584
2017-04-06T09:25:21.522Z,7364
2017-04-06T09:26:21.816Z,7456
2017-04-06T09:27:21.519Z,7376
2017-04-06T09:28:21.506Z,7196
2017-04-06T09:29:21.502Z,7064
2017-04-06T09:30:21.193Z,7544
2017-04-06T09:31:21.743Z,7260
2017-04-06T09:32:21.487Z,7784
2017-04-06T09:33:21.484Z,8028
2017-04-06T09:34:21.478Z,7528
2017-04-06T09:35:21.467Z,7740
2017-04-06T09:36:21.814Z,7508
2017-04-06T09:37:21.460Z,7264
2017-04-06T09:38:21.449Z,7252
2017-04-06T09:39:21.445Z,7240
2017-04-06T09:40:20.839Z,7392
2017-04-06T09:41:21.685Z,7464
2017-04-06T09:42:21.431Z,7400
2017-04-06T09:43:21.424Z,7748
2017-04-06T09:44:21.118Z,8316
2017-04-06T09:45:21.416Z,8332
2017-04-06T09:46:21.051Z,9680
2017-04-06T09:47:21.410Z,9692
2017-04-06T09:48:20.794Z,9712
2017-04-06T09:49:21.392Z,10056
2017-04-06T09:50:21.416Z,9696
2017-04-06T09:51:21.332Z,8384
2017-04-06T09:52:21.376Z,8608
2017-04-06T09:53:21.070Z,9780
2017-04-06T09:54:21.363Z,10828
2017-04-06T09:55:21.058Z,10584
2017-04-06T09:56:21.603Z,9640
2017-04-06T09:57:21.049Z,9512
2017-04-06T09:58:21.344Z,9476
2017-04-06T09:59:21.035Z,8772
2017-04-06T10:00:21.335Z,7936
2017-04-06T10:01:21.679Z,7432
2017-04-06T10:02:21.035Z,7588
2017-04-06T10:03:21.320Z,8592
2017-04-06T10:04:21.013Z,10068
2017-04-06T10:05:21.307Z,10224
2017-04-06T10:06:21.562Z,9776
2017-04-06T10:07:21.301Z,9660
2017-04-06T10:08:21.291Z,9292
2017-04-06T10:09:21.286Z,8888
2017-04-06T10:10:20.981Z,8408
2017-04-06T10:11:21.528Z,9508
2017-04-06T10:12:20.970Z,11124
2017-04-06T10:13:21.267Z,8760
2017-04-06T10:14:20.964Z,7112
2017-04-06T10:15:21.263Z,7016
2017-04-06T10:16:21.611Z,7428
2017-04-06T10:17:21.248Z,8268
2017-04-06T10:18:20.942Z,8608
2017-04-06T10:19:21.236Z,9080
2017-04-06T10:20:20.932Z,9720
2017-04-06T10:21:21.532Z,9332
2017-04-06T10:22:20.924Z,8140
2017-04-06T10:23:20.951Z,7356
2017-04-06T10:24:21.218Z,7848
2017-04-06T10:25:21.215Z,9184
2017-04-06T10:26:21.556Z,10432
2017-04-06T10:27:21.200Z,12040
2017-04-06T10:28:21.196Z,13200
2017-04-06T10:29:21.195Z,12716
2017-04-06T10:30:20.882Z,12916
2017-04-06T10:31:21.435Z,13228
2017-04-06T10:32:21.180Z,11648
2017-04-06T10:33:21.175Z,9608
2017-04-06T10:34:21.167Z,7628
2017-04-06T10:35:21.162Z,7748
2017-04-06T10:36:21.458Z,8608
2017-04-06T10:37:21.168Z,8812
2017-04-06T10:38:20.845Z,8804
2017-04-06T10:39:20.840Z,9264
2017-04-06T10:40:20.837Z,10164
2017-04-06T10:41:21.383Z,11132
2017-04-06T10:42:20.829Z,11292
2017-04-06T10:43:20.822Z,11956
2017-04-06T10:44:20.847Z,12560
2017-04-06T10:45:20.817Z,12460
2017-04-06T10:46:21.469Z,13108
2017-04-06T10:47:20.814Z,12188
2017-04-06T10:48:20.803Z,10484
2017-04-06T10:49:20.804Z,9492
2017-04-06T10:50:20.792Z,8596
2017-04-06T10:51:21.349Z,7520
2017-04-06T10:52:20.783Z,6784
2017-04-06T10:53:20.779Z,6340
2017-04-06T10:54:20.777Z,6248
2017-04-06T10:55:20.773Z,6728
2017-04-06T10:56:21.321Z,7588
2017-04-06T10:57:20.766Z,8704
2017-04-06T10:58:20.766Z,9512
2017-04-06T10:59:21.058Z,10708
2017-04-06T11:00:21.056Z,11084
2017-04-06T11:01:21.353Z,10868
2017-04-06T11:02:21.043Z,8756
2017-04-06T11:03:20.736Z,7320
2017-04-06T11:04:21.033Z,6848
2017-04-06T11:05:21.031Z,6640
2017-04-06T11:06:20.975Z,6072
2017-04-06T11:07:21.025Z,5996
2017-04-06T11:08:20.713Z,6032
2017-04-06T11:09:21.020Z,6036
2017-04-06T11:10:21.010Z,5772
2017-04-06T11:11:21.001Z,6100
2017-04-06T11:12:21.009Z,6372
2017-04-06T11:13:20.993Z,7044
2017-04-06T11:14:20.988Z,7280
2017-04-06T11:15:20.986Z,7532
2017-04-06T11:16:20.926Z,8620
2017-04-06T11:17:20.979Z,9732
2017-04-06T11:18:20.974Z,10424
2017-04-06T11:19:20.966Z,10052
2017-04-06T11:20:20.961Z,9772
2017-04-06T11:21:20.905Z,10200
2017-04-06T11:22:20.655Z,10320
2017-04-06T11:23:20.950Z,10288
2017-04-06T11:24:20.944Z,10036
2017-04-06T11:25:20.937Z,9096
2017-04-06T11:26:21.185Z,7736
2017-04-06T11:27:20.935Z,7096
2017-04-06T11:28:20.925Z,6816
2017-04-06T11:29:20.919Z,6500
2017-04-06T11:30:20.919Z,6392
2017-04-06T11:31:21.164Z,6648
2017-04-06T11:32:20.913Z,6908
2017-04-06T11:33:20.903Z,7100
2017-04-06T11:34:20.904Z,7780
2017-04-06T11:35:20.895Z,9092
2017-04-06T11:36:21.247Z,10676
2017-04-06T11:37:20.889Z,12000
2017-04-06T11:38:20.881Z,11328
2017-04-06T11:39:20.883Z,9212
2017-04-06T11:40:20.874Z,8040
2017-04-06T11:41:20.814Z,7780
2017-04-06T11:42:20.864Z,7492
2017-04-06T11:43:20.862Z,7536
2017-04-06T11:44:20.855Z,7648
2017-04-06T11:45:20.857Z,7948
2017-04-06T11:46:21.097Z,8600
2017-04-06T11:47:21.047Z,9784
2017-04-06T11:48:20.837Z,11268
2017-04-06T11:49:20.835Z,12260
2017-04-06T11:50:20.227Z,11604
2017-04-06T11:51:21.081Z,10248
2017-04-06T11:52:20.824Z,9824
2017-04-06T11:53:20.515Z,10144
2017-04-06T11:54:20.812Z,11572
2017-04-06T11:55:20.811Z,12448
2017-04-06T11:56:21.054Z,12240
2017-04-06T11:57:20.801Z,10744
2017-04-06T11:58:20.794Z,9392
2017-04-06T11:59:20.793Z,8736
2017-04-06T12:00:20.787Z,8076
2017-04-06T12:01:21.088Z,7964
2017-04-06T12:02:20.787Z,8404
2017-04-06T12:03:20.476Z,9404
2017-04-06T12:04:20.781Z,9572
2017-04-06T12:05:20.779Z,10836
2017-04-06T12:06:21.021Z,11052
2017-04-06T12:07:20.762Z,10604
2017-04-06T12:08:20.759Z,10032
2017-04-06T12:09:20.753Z,9620
2017-04-06T12:10:20.752Z,9328
2017-04-06T12:11:20.998Z,9472
2017-04-06T12:12:20.747Z,10028
2017-04-06T12:13:20.739Z,9876
2017-04-06T12:14:20.744Z,10540
2017-04-06T12:15:20.732Z,11616
2017-04-06T12:16:21.030Z,12184
2017-04-06T12:17:20.446Z,11376
2017-04-06T12:18:20.422Z,10492
2017-04-06T12:19:20.715Z,10532
2017-04-06T12:20:20.716Z,10652
2017-04-06T12:21:20.964Z,10316
2017-04-06T12:22:20.711Z,10588
2017-04-06T12:23:20.702Z,11228
2017-04-06T12:24:20.701Z,11536
2017-04-06T12:25:20.698Z,12048
2017-04-06T12:26:20.998Z,12112
2017-04-06T12:27:20.689Z,11280
2017-04-06T12:28:20.688Z,11200
2017-04-06T12:29:20.682Z,11452
2017-04-06T12:30:20.680Z,11488
2017-04-06T12:31:21.024Z,10364
2017-04-06T12:32:20.890Z,9360
2017-04-06T12:33:20.672Z,9080
2017-04-06T12:34:20.370Z,10644
2017-04-06T12:35:20.665Z,12004
2017-04-06T12:36:20.912Z,13104
2017-04-06T12:37:20.654Z,13716
2017-04-06T12:38:20.655Z,14060
2017-04-06T12:39:20.652Z,13204
2017-04-06T12:40:20.645Z,13248
2017-04-06T12:41:20.901Z,13148
2017-04-06T12:42:20.641Z,13456
2017-04-06T12:43:20.634Z,14364
2017-04-06T12:44:20.635Z,15072
2017-04-06T12:45:20.631Z,15216
2017-04-06T12:46:20.981Z,14856
2017-04-06T12:47:20.626Z,14648
2017-04-06T12:48:20.617Z,14344
2017-04-06T12:49:20.612Z,14528
2017-04-06T12:50:20.612Z,14696
2017-04-06T12:51:20.860Z,15064
2017-04-06T12:52:20.005Z,14660
2017-04-06T12:53:20.631Z,14788
2017-04-06T12:54:20.599Z,14368
2017-04-06T12:55:20.599Z,13332
2017-04-06T12:56:20.897Z,12764
2017-04-06T12:57:20.592Z,12236
2017-04-06T12:58:20.588Z,11972
2017-04-06T12:59:20.285Z,10936
2017-04-06T13:00:20.583Z,10148
2017-04-06T13:01:20.833Z,9520
2017-04-06T13:02:20.577Z,10676
2017-04-06T13:03:20.574Z,12820
2017-04-06T13:04:20.573Z,15216
2017-04-06T13:05:20.575Z,15336
2017-04-06T13:06:20.865Z,15044
2017-04-06T13:07:20.564Z,14328
2017-04-06T13:08:20.558Z,13820
2017-04-06T13:09:20.561Z,14832
2017-04-06T13:10:20.557Z,14016
2017-04-06T13:11:20.809Z,13048
2017-04-06T13:12:20.550Z,12624
2017-04-06T13:13:20.546Z,11704
2017-04-06T13:14:20.540Z,11008
2017-04-06T13:15:20.539Z,10572
2017-04-06T13:16:20.787Z,10624
2017-04-06T13:17:20.234Z,10264
2017-04-06T13:18:20.729Z,10116
2017-04-06T13:19:20.528Z,9564
2017-04-06T13:20:20.522Z,9660
2017-04-06T13:21:21.168Z,10144
2017-04-06T13:22:20.519Z,11080
2017-04-06T13:23:20.571Z,11444
2017-04-06T13:24:20.511Z,11444
2017-04-06T13:25:20.514Z,11128
2017-04-06T13:26:20.505Z,10284
2017-04-06T13:27:20.501Z,9236
2017-04-06T13:28:20.196Z,7956
2017-04-06T13:29:20.501Z,6788
2017-04-06T13:30:20.193Z,6228
2017-04-06T13:31:20.490Z,5612
2017-04-06T13:32:20.740Z,5424
2017-04-06T13:33:20.487Z,5456
2017-04-06T13:34:20.480Z,5652
2017-04-06T13:35:20.177Z,5840
2017-04-06T13:36:20.475Z,6316